Portada
METAR-TAF:

METAR-TAF

Aeropuertos :

Aeropuerto Internacional de Kuwait

Ciudad de Kuwait, Kuwait

latitud: 29-13N, longitud: 047-59E, altitud: 55 m

Observación

El informe se hizo hace 35 minutos, a las 14:00 UTC
Viento 15 kt del norte-noroeste
Temperatura 27°C
Humedad 20%
Presión 1017 hPa
Visibilidad 10 km o más
sin nubes por debajo de 1500 m y sin presencia de cumulonimbus.

METAR: OKBK 241400Z 34015KT CAVOK 27/02 Q1017 NOSIG

Hora: 17:35 (14:35 UTC)

Pronóstico

El informe se hizo hace 3 horas y 50 minutos, a las 10:45 UTC
Pronóstico válido del 24 a las 12 UTC al 25 a las 18 UTC
Viento 14 kt del norte-noroeste con ráfagas de 25 kt
Visibilidad: 7000 m
Cielo despejado

TAF: OKBK 241045Z 2412/2518 34014G25KT 7000 SKC

Observaciones y pronósticos meteorológicos de más de 4000 aeropuertos (mensajes METAR y TAF).

Los puntos amarillos y rojos representan las estaciones disponibles.

Ponga el ratón en el punto deseado para ver el nombre de la estación.

Haga clic para ver las observaciones y los pronósticos meteorológicos.

Para cambiar el mapa : haga clic en los botones verdes con una cruz de color negro para hacer un zoom, en el botón verde con un guión para alejar o en las flechas verdes para mapas adyacentes.


METAR-TAF: